Time;durP1;ratioP1;P1;durP2;ratioP2;P2;SDS_P1;SDS_P2;PMS_P1;PMS_P2;Temp;Humidity;BMP_temperature;BMP_pressure;BME280_temperature;BME280_humidity;BME280_pressure;Samples;Min_cycle;Max_cycle;Signal;HPM_P1;HPM_P2
2022/01/18 00:00:46;;;;;;;16.92;15.90;;;2.70;84.90;;;;;;5095033;28;20024;-64
2022/01/18 00:03:13;;;;;;;18.50;17.23;;;2.70;84.80;;;;;;5094670;28;20073;-64
2022/01/18 00:05:39;;;;;;;18.17;17.23;;;2.70;85.00;;;;;;5094882;28;20118;-63
2022/01/18 00:08:04;;;;;;;14.55;13.63;;;2.70;84.80;;;;;;5094495;28;20107;-64
2022/01/18 00:10:32;;;;;;;17.65;16.27;;;2.80;84.90;;;;;;5094818;28;20035;-63
2022/01/18 00:16:08;;;;;;;17.83;16.38;;;2.70;84.40;;;;;;5095703;28;20121;-64
2022/01/18 00:18:23;;;;;;;15.18;14.43;;;2.60;84.00;;;;;;5095367;28;20367;-64
2022/01/18 00:23:23;;;;;;;17.05;15.68;;;2.60;84.40;;;;;;5096519;28;20110;-64
2022/01/18 00:25:53;;;;;;;17.45;16.35;;;2.60;84.20;;;;;;5094782;28;20030;-64
2022/01/18 00:28:20;;;;;;;15.07;14.07;;;2.50;83.90;;;;;;5094473;28;20048;-64
2022/01/18 00:33:26;;;;;;;16.30;15.13;;;2.50;84.20;;;;;;5096141;28;20458;-64
2022/01/18 00:36:00;;;;;;;16.35;15.30;;;2.40;84.00;;;;;;5094614;28;20073;-63
2022/01/18 00:38:44;;;;;;;14.95;13.98;;;2.30;83.90;;;;;;5094503;28;20024;-63
2022/01/18 00:41:11;;;;;;;16.73;15.68;;;2.30;84.00;;;;;;5094573;28;20034;-63
2022/01/18 00:43:37;;;;;;;18.45;17.38;;;2.30;83.90;;;;;;5094071;28;20024;-64
2022/01/18 00:46:03;;;;;;;16.00;14.85;;;2.30;84.20;;;;;;5094154;28;20032;-64
2022/01/18 00:48:34;;;;;;;18.98;18.08;;;2.30;84.10;;;;;;5094015;28;20145;-63
2022/01/18 00:51:00;;;;;;;16.50;15.40;;;2.20;83.90;;;;;;5095437;28;20028;-63
2022/01/18 00:53:30;;;;;;;16.90;16.10;;;2.20;83.90;;;;;;5094000;28;20048;-64
2022/01/18 00:58:42;;;;;;;16.23;15.30;;;2.20;84.10;;;;;;5094813;28;20032;-64
2022/01/18 01:01:10;;;;;;;15.88;14.77;;;2.20;84.10;;;;;;5094941;28;20031;-64
2022/01/18 01:03:36;;;;;;;17.20;16.13;;;2.20;84.10;;;;;;5094237;28;20115;-63
2022/01/18 01:06:04;;;;;;;17.55;16.80;;;2.20;84.30;;;;;;5093735;28;20460;-64
2022/01/18 01:08:30;;;;;;;15.57;14.88;;;2.30;84.30;;;;;;5093645;28;20119;-64
2022/01/18 01:10:57;;;;;;;18.35;17.00;;;2.30;84.30;;;;;;5093634;28;20053;-64
2022/01/18 01:13:24;;;;;;;17.15;16.33;;;2.30;84.30;;;;;;5094895;28;20039;-64
2022/01/18 01:35:13;;;;;;;15.45;14.50;;;2.40;84.00;;;;;;5094858;28;20043;-64
2022/01/18 01:43:11;;;;;;;25.38;22.98;;;2.40;83.80;;;;;;5094681;28;20158;-63
2022/01/18 01:45:39;;;;;;;16.17;15.02;;;2.40;83.90;;;;;;5093276;28;20032;-64
2022/01/18 01:48:04;;;;;;;15.27;14.52;;;2.50;83.80;;;;;;5094222;28;20028;-63
2022/01/18 01:53:12;;;;;;;16.23;15.38;;;2.40;83.70;;;;;;5094609;28;20035;-63
2022/01/18 01:55:38;;;;;;;16.73;15.68;;;2.40;83.40;;;;;;5092845;28;20039;-64
2022/01/18 01:58:04;;;;;;;16.85;15.98;;;2.40;83.60;;;;;;5094070;28;20455;-64
2022/01/18 02:00:30;;;;;;;14.57;13.98;;;2.40;83.60;;;;;;5092758;28;20031;-64
2022/01/18 02:02:56;;;;;;;15.30;14.45;;;2.40;83.60;;;;;;5093259;28;20050;-64
2022/01/18 02:05:23;;;;;;;15.85;14.95;;;2.40;83.80;;;;;;5093075;28;20024;-64
2022/01/18 02:07:50;;;;;;;16.20;15.05;;;2.40;83.70;;;;;;5094004;28;20073;-64
2022/01/18 02:10:16;;;;;;;15.88;15.18;;;2.40;83.80;;;;;;5092510;28;20028;-64
2022/01/18 02:12:41;;;;;;;17.08;16.17;;;2.40;83.70;;;;;;5092596;28;20020;-64
2022/01/18 02:15:15;;;;;;;16.70;15.75;;;2.40;83.80;;;;;;5093447;28;20052;-63
2022/01/18 02:23:22;;;;;;;18.35;17.20;;;2.40;83.40;;;;;;5093913;28;20035;-64
2022/01/18 02:25:48;;;;;;;18.48;17.33;;;2.40;83.40;;;;;;5075324;28;20036;-64
2022/01/18 02:28:14;;;;;;;19.92;18.95;;;2.40;83.90;;;;;;5093627;28;20039;-65
2022/01/18 02:30:40;;;;;;;18.58;17.30;;;2.40;83.80;;;;;;5092447;28;20086;-64
2022/01/18 02:33:06;;;;;;;17.20;16.23;;;2.40;84.00;;;;;;5092474;28;20028;-63
2022/01/18 02:35:35;;;;;;;18.13;17.05;;;2.40;84.00;;;;;;5093614;28;20036;-64
2022/01/18 02:38:02;;;;;;;17.30;16.50;;;2.30;84.00;;;;;;5092369;28;20154;-64
2022/01/18 02:40:29;;;;;;;17.25;16.35;;;2.20;84.20;;;;;;5092317;28;20149;-65
2022/01/18 02:42:59;;;;;;;18.83;17.67;;;2.10;84.30;;;;;;5092306;28;20024;-64
2022/01/18 02:45:25;;;;;;;18.08;16.83;;;2.00;84.60;;;;;;5093784;28;20129;-64
2022/01/18 02:47:51;;;;;;;17.48;16.25;;;2.00;85.00;;;;;;5092414;28;20047;-64
2022/01/18 02:50:18;;;;;;;17.52;16.52;;;2.00;85.30;;;;;;5092409;28;20028;-64
2022/01/18 02:52:44;;;;;;;16.85;15.85;;;2.00;85.40;;;;;;5092196;28;20032;-65
2022/01/18 02:55:10;;;;;;;16.17;15.30;;;2.00;85.50;;;;;;5092668;28;20042;-64
2022/01/18 02:57:44;;;;;;;17.17;16.20;;;1.90;85.30;;;;;;5092322;28;20394;-65
2022/01/18 03:00:20;;;;;;;18.83;17.70;;;1.70;85.30;;;;;;5092237;28;20039;-65
2022/01/18 03:05:30;;;;;;;15.07;14.48;;;1.40;85.60;;;;;;5093324;28;20067;-65
2022/01/18 03:07:55;;;;;;;18.25;17.00;;;1.40;86.10;;;;;;5092244;28;20373;-64
2022/01/18 03:10:21;;;;;;;18.40;17.70;;;1.20;86.00;;;;;;5093274;28;20440;-65
2022/01/18 03:12:47;;;;;;;17.05;16.35;;;1.00;85.90;;;;;;5093441;28;20400;-65
2022/01/18 03:15:12;;;;;;;16.65;15.90;;;0.90;86.00;;;;;;5091619;28;20482;-65
2022/01/18 03:17:38;;;;;;;17.13;16.23;;;0.70;86.30;;;;;;5091953;28;20054;-65
2022/01/18 03:20:06;;;;;;;20.90;20.05;;;0.60;86.50;;;;;;5093330;28;20024;-65
2022/01/18 03:22:32;;;;;;;18.88;17.77;;;0.40;86.30;;;;;;5093015;28;20386;-65
2022/01/18 03:30:09;;;;;;;18.83;18.02;;;0.10;87.00;;;;;;5097085;28;20081;-63
2022/01/18 03:32:36;;;;;;;19.17;18.35;;;0.00;87.30;;;;;;5095940;28;20020;-63
2022/01/18 03:35:03;;;;;;;20.73;19.85;;;0.10;87.50;;;;;;5095787;28;20055;-64
2022/01/18 03:37:29;;;;;;;19.73;18.77;;;0.00;87.30;;;;;;5095471;28;20032;-64
2022/01/18 03:39:55;;;;;;;19.63;18.75;;;0.00;87.30;;;;;;5095435;28;20028;-64
2022/01/18 03:44:56;;;;;;;17.83;17.02;;;-0.10;87.90;;;;;;5096563;28;20027;-64
2022/01/18 03:47:22;;;;;;;19.92;19.05;;;-0.10;87.70;;;;;;5096705;28;20027;-64
2022/01/18 03:49:47;;;;;;;20.52;19.52;;;-0.20;87.40;;;;;;5095086;28;20024;-64
2022/01/18 03:52:13;;;;;;;20.98;20.08;;;-0.20;87.20;;;;;;5096424;28;20024;-64
2022/01/18 03:54:43;;;;;;;21.30;20.13;;;-0.30;87.00;;;;;;5095104;28;20062;-64
2022/01/18 03:57:10;;;;;;;18.30;17.40;;;-0.40;87.00;;;;;;5095140;28;20113;-65
2022/01/18 03:59:35;;;;;;;18.20;17.40;;;-0.40;87.20;;;;;;5095016;28;20432;-64
2022/01/18 04:02:01;;;;;;;19.25;18.45;;;-0.40;87.20;;;;;;5096229;28;20032;-64
2022/01/18 04:04:27;;;;;;;19.85;18.83;;;-0.40;87.30;;;;;;5096106;28;20054;-64
2022/01/18 04:06:53;;;;;;;23.42;21.38;;;-0.30;87.60;;;;;;5095951;28;20522;-64
2022/01/18 04:09:20;;;;;;;17.25;16.48;;;-0.20;87.30;;;;;;5096276;28;20108;-64
2022/01/18 04:11:46;;;;;;;17.60;16.88;;;-0.30;86.90;;;;;;5095924;28;20024;-65
2022/01/18 04:14:12;;;;;;;16.52;15.82;;;-0.40;87.00;;;;;;5094616;28;20470;-64
2022/01/18 04:16:55;;;;;;;19.52;17.45;;;-0.40;86.90;;;;;;5093277;28;20044;-64
2022/01/18 04:25:50;;;;;;;17.45;16.85;;;-0.40;86.90;;;;;;5093975;28;20118;-66
2022/01/18 04:27:43;;;;;;;15.70;15.10;;;-0.70;87.00;;;;;;5095821;28;20065;-65
2022/01/18 04:30:09;;;;;;;18.38;17.48;;;-0.80;87.00;;;;;;5094854;28;20024;-65
2022/01/18 04:32:35;;;;;;;16.25;15.55;;;-0.90;87.40;;;;;;5093478;28;20028;-64
2022/01/18 04:35:01;;;;;;;17.88;17.20;;;-0.90;87.70;;;;;;5093554;28;20028;-64
2022/01/18 04:37:26;;;;;;;17.25;16.48;;;-1.00;87.60;;;;;;5094945;28;20026;-64
2022/01/18 04:39:52;;;;;;;20.35;19.55;;;-1.00;87.40;;;;;;5094823;28;20031;-64
2022/01/18 04:42:58;;;;;;;19.17;18.38;;;-1.00;87.20;;;;;;5094712;28;20016;-66
2022/01/18 04:50:52;;;;;;;17.92;17.30;;;-1.00;85.70;;;;;;5092219;28;20105;-65
2022/01/18 04:53:17;;;;;;;20.55;19.85;;;-1.20;84.90;;;;;;5091843;28;20027;-66
2022/01/18 04:55:43;;;;;;;18.98;18.15;;;-1.30;84.30;;;;;;5093856;28;20035;-67
2022/01/18 04:58:09;;;;;;;17.88;17.08;;;-1.30;84.20;;;;;;5094495;28;20055;-66
2022/01/18 05:00:35;;;;;;;17.35;16.75;;;-1.40;84.30;;;;;;5090939;28;20042;-68
2022/01/18 05:03:01;;;;;;;15.50;15.00;;;-1.30;85.00;;;;;;5092596;28;20043;-67
2022/01/18 05:05:29;;;;;;;19.15;17.70;;;-1.20;85.00;;;;;;5088302;28;20035;-66
2022/01/18 05:08:02;;;;;;;19.75;18.95;;;-1.30;84.20;;;;;;5116774;27;20118;-68
2022/01/18 05:10:29;;;;;;;17.65;17.05;;;-1.30;84.20;;;;;;5091619;28;20497;-69
2022/01/18 05:12:57;;;;;;;17.30;16.50;;;-1.40;83.30;;;;;;5091894;28;20016;-68
2022/01/18 05:23:02;;;;;;;17.45;16.85;;;-1.50;81.20;;;;;;5088794;28;20035;-69
2022/01/18 05:25:29;;;;;;;17.10;16.40;;;-1.50;80.00;;;;;;5114067;27;20044;-71
2022/01/18 05:27:59;;;;;;;17.02;16.42;;;-1.60;78.80;;;;;;5090067;28;20721;-69
2022/01/18 05:30:30;;;;;;;18.05;17.15;;;-1.60;79.80;;;;;;5091270;28;20027;-68
2022/01/18 05:32:56;;;;;;;18.10;17.40;;;-1.50;80.20;;;;;;5091325;28;20028;-69
2022/01/18 05:35:23;;;;;;;16.77;16.17;;;-1.50;79.60;;;;;;5091189;28;20036;-70
2022/01/18 05:37:49;;;;;;;19.35;18.67;;;-1.50;78.90;;;;;;5123739;27;20035;-61
2022/01/18 05:40:17;;;;;;;17.13;16.52;;;-1.50;78.20;;;;;;5093823;28;20028;-61
2022/01/18 05:42:42;;;;;;;18.10;17.33;;;-1.50;78.80;;;;;;5092457;28;20028;-61
2022/01/18 05:45:10;;;;;;;19.38;18.40;;;-1.50;78.70;;;;;;5093471;28;20032;-60
2022/01/18 05:47:37;;;;;;;19.50;18.52;;;-1.50;77.90;;;;;;5093619;28;20031;-61
2022/01/18 05:50:05;;;;;;;20.75;19.55;;;-1.40;78.10;;;;;;5092261;28;20029;-62
2022/01/18 05:52:31;;;;;;;18.98;18.10;;;-1.50;77.50;;;;;;5093900;28;20020;-60
2022/01/18 05:54:57;;;;;;;19.35;18.48;;;-1.50;76.70;;;;;;5092435;28;20028;-60
2022/01/18 05:57:23;;;;;;;18.92;18.02;;;-1.60;76.20;;;;;;5093903;28;20028;-58
2022/01/18 05:59:50;;;;;;;17.25;16.58;;;-1.60;76.10;;;;;;5092372;28;20026;-60
2022/01/18 06:03:01;;;;;;;17.35;16.55;;;-1.60;75.50;;;;;;5092054;28;20073;-61
2022/01/18 06:07:49;;;;;;;19.63;18.35;;;-1.60;75.30;;;;;;5090531;28;20038;-60
2022/01/18 06:10:15;;;;;;;18.25;17.25;;;-1.60;76.20;;;;;;5090310;28;20032;-61
2022/01/18 11:36:49;;;;;;;21.90;19.63;;;-2.00;73.30;;;;;;5049260;28;20407;-61
2022/01/18 11:39:17;;;;;;;22.38;21.08;;;-0.50;82.30;;;;;;5050016;28;20037;-61
2022/01/18 11:41:43;;;;;;;19.83;18.70;;;-0.20;79.90;;;;;;5050120;28;20017;-61
2022/01/18 11:44:16;;;;;;;19.52;18.25;;;0.10;79.70;;;;;;5049833;28;20034;-63
2022/01/18 11:46:59;;;;;;;17.83;17.08;;;0.20;78.40;;;;;;5046481;28;20033;-63
2022/01/18 11:49:32;;;;;;;19.50;18.27;;;0.10;77.00;;;;;;5046984;28;20033;-63
2022/01/18 11:52:09;;;;;;;17.52;16.88;;;0.10;75.60;;;;;;5045752;28;20031;-61
2022/01/18 11:57:23;;;;;;;20.17;19.27;;;0.00;73.10;;;;;;5049829;28;20100;-63
2022/01/18 12:00:20;;;;;;;20.65;19.35;;;-0.10;73.30;;;;;;5046966;28;20018;-64
2022/01/18 12:02:48;;;;;;;19.92;18.92;;;0.00;74.90;;;;;;5047895;28;20028;-62
2022/01/18 12:05:20;;;;;;;19.60;18.48;;;0.20;74.60;;;;;;5049771;28;20033;-62
2022/01/18 12:07:52;;;;;;;23.00;21.52;;;0.30;74.50;;;;;;5050344;28;20034;-61
2022/01/18 12:10:30;;;;;;;18.67;17.58;;;0.40;75.10;;;;;;5048943;28;20025;-64
2022/01/18 12:13:10;;;;;;;20.23;19.02;;;0.20;73.30;;;;;;5048152;28;20449;-63
2022/01/18 12:15:36;;;;;;;16.38;15.57;;;0.10;72.90;;;;;;5038728;28;20468;-62
2022/01/18 12:18:12;;;;;;;20.45;18.95;;;0.10;72.20;;;;;;5029952;28;20026;-62
2022/01/18 12:20:39;;;;;;;21.88;20.50;;;-0.10;71.70;;;;;;5029831;28;20018;-62
2022/01/18 12:23:14;;;;;;;16.40;15.70;;;0.00;72.60;;;;;;5039476;28;20029;-62
2022/01/18 12:26:14;;;;;;;20.30;19.23;;;-0.10;72.10;;;;;;5036796;28;20042;-63
2022/01/18 12:34:30;;;;;;;23.08;21.58;;;-0.40;72.10;;;;;;5029321;28;20048;-62
2022/01/18 12:37:08;;;;;;;16.70;15.90;;;-0.30;73.40;;;;;;5019076;28;20503;-63
2022/01/18 12:45:11;;;;;;;19.50;18.80;;;-0.30;72.40;;;;;;5016528;28;19931;-62
2022/01/18 12:47:42;;;;;;;23.02;21.70;;;-0.30;71.60;;;;;;5016115;28;20033;-63
2022/01/18 12:50:10;;;;;;;21.25;19.98;;;-0.40;72.10;;;;;;5015138;28;20026;-64
2022/01/18 12:52:46;;;;;;;22.52;20.90;;;-0.50;72.30;;;;;;5014297;28;20384;-61
2022/01/18 12:55:33;;;;;;;20.52;19.17;;;-0.50;73.00;;;;;;5015524;28;20030;-62
2022/01/18 12:58:01;;;;;;;;;;;-0.50;72.80;;;;;;5011422;28;20041;-61
2022/01/18 13:00:28;;;;;;;19.17;18.23;;;-0.50;72.70;;;;;;5012380;28;20024;-62
2022/01/18 13:02:58;;;;;;;18.60;17.83;;;-0.40;72.60;;;;;;5012543;28;20034;-62
2022/01/18 13:05:34;;;;;;;18.65;17.70;;;-0.50;72.40;;;;;;5012495;28;20060;-62
2022/01/18 13:08:00;;;;;;;24.40;23.07;;;-0.50;72.50;;;;;;5015269;28;20026;-62
2022/01/18 13:10:37;;;;;;;20.30;19.30;;;-0.40;73.40;;;;;;5014972;28;20025;-61
2022/01/18 13:13:04;;;;;;;20.17;19.15;;;-0.30;72.70;;;;;;5015800;28;20073;-63
2022/01/18 13:15:50;;;;;;;18.83;17.70;;;-0.30;72.50;;;;;;5013920;28;20036;-63
2022/01/18 13:26:32;;;;;;;17.80;16.80;;;-0.10;72.90;;;;;;5014895;28;20044;-63
2022/01/18 13:29:10;;;;;;;18.80;17.80;;;-0.10;73.40;;;;;;5012785;28;20383;-63
2022/01/18 13:31:36;;;;;;;17.13;16.42;;;0.00;73.50;;;;;;5013609;28;20552;-62
2022/01/18 13:34:03;;;;;;;20.63;19.10;;;0.00;73.40;;;;;;5012823;28;20117;-63
2022/01/18 13:36:30;;;;;;;23.30;21.65;;;-0.10;73.60;;;;;;5030204;28;20106;-62
2022/01/18 13:38:57;;;;;;;19.58;18.67;;;-0.10;74.30;;;;;;5031401;28;20034;-63
2022/01/18 13:41:24;;;;;;;19.13;18.25;;;-0.10;74.70;;;;;;5032495;28;20441;-63
2022/01/18 13:43:50;;;;;;;18.10;17.30;;;-0.20;74.70;;;;;;5033363;28;20029;-59
2022/01/18 13:46:24;;;;;;;19.33;18.60;;;-0.40;74.80;;;;;;5033397;28;20048;-61
2022/01/18 13:49:04;;;;;;;19.05;18.13;;;-0.50;75.10;;;;;;5032396;28;20022;-61
2022/01/18 13:51:29;;;;;;;19.48;18.67;;;-0.50;75.60;;;;;;5032213;28;20029;-61
2022/01/18 13:54:03;;;;;;;21.48;20.27;;;-0.50;75.60;;;;;;5033134;28;20103;-60
2022/01/18 13:56:28;;;;;;;18.30;17.50;;;-0.50;75.80;;;;;;5033334;28;20021;-61
2022/01/18 13:59:05;;;;;;;20.38;18.90;;;-0.40;75.60;;;;;;5033097;28;20041;-61
2022/01/18 14:01:36;;;;;;;18.15;17.42;;;-0.50;75.70;;;;;;5031353;28;20029;-61
2022/01/18 14:04:21;;;;;;;20.63;19.55;;;-0.50;75.50;;;;;;5031457;28;20037;-62
2022/01/18 14:06:49;;;;;;;23.20;21.33;;;-0.50;75.40;;;;;;5030740;28;20021;-62
2022/01/18 14:09:16;;;;;;;21.23;19.83;;;-0.50;75.40;;;;;;5033212;28;20025;-63
2022/01/18 14:11:51;;;;;;;22.88;21.42;;;-0.50;75.10;;;;;;5031219;28;20026;-61
2022/01/18 14:14:29;;;;;;;21.63;20.35;;;-0.50;74.90;;;;;;5033606;28;21579;-63
2022/01/18 14:17:00;;;;;;;20.55;19.08;;;-0.50;74.80;;;;;;5032785;28;20029;-61
2022/01/18 14:19:40;;;;;;;21.20;20.10;;;-0.60;74.20;;;;;;5032573;28;20049;-62
2022/01/18 14:22:16;;;;;;;22.80;21.85;;;-0.60;74.30;;;;;;5031746;28;20048;-62
2022/01/18 14:24:44;;;;;;;22.03;21.03;;;-0.60;73.80;;;;;;5033780;28;20060;-62
2022/01/18 14:27:15;;;;;;;22.05;20.83;;;-0.60;73.60;;;;;;5033554;28;20040;-62
2022/01/18 14:29:40;;;;;;;23.38;21.98;;;-0.60;73.60;;;;;;5032525;28;20415;-63
2022/01/18 14:32:12;;;;;;;20.27;19.27;;;-0.60;73.50;;;;;;5032136;28;20030;-62
2022/01/18 14:34:41;;;;;;;21.45;20.25;;;-0.60;73.70;;;;;;5031355;28;20056;-62
2022/01/18 14:37:09;;;;;;;19.10;18.23;;;-0.70;73.00;;;;;;5033551;28;20058;-62
2022/01/18 14:40:00;;;;;;;16.90;16.25;;;-0.80;73.10;;;;;;5031243;28;20033;-62
2022/01/18 14:42:32;;;;;;;17.75;16.83;;;-0.70;73.70;;;;;;5031564;28;20021;-61
2022/01/18 14:47:26;;;;;;;22.33;20.42;;;-0.70;73.30;;;;;;5032185;28;20147;-62
2022/01/18 14:49:54;;;;;;;23.80;22.40;;;-0.60;73.20;;;;;;5028482;28;20037;-63
2022/01/18 14:52:20;;;;;;;18.27;17.55;;;-0.70;72.80;;;;;;5033173;28;20461;-63
2022/01/18 14:54:46;;;;;;;21.63;20.67;;;-0.70;72.70;;;;;;5032335;28;20159;-62
2022/01/18 14:57:12;;;;;;;22.95;21.02;;;-0.70;72.60;;;;;;5033627;28;20100;-62
2022/01/18 14:59:38;;;;;;;21.05;20.15;;;-0.60;72.90;;;;;;5031803;28;20037;-61
2022/01/18 15:02:04;;;;;;;18.50;17.52;;;-0.60;73.00;;;;;;5033416;28;20076;-62
2022/01/18 15:04:30;;;;;;;20.02;19.13;;;-0.60;72.30;;;;;;5033590;28;20061;-62
2022/01/18 15:06:55;;;;;;;23.17;21.90;;;-0.60;72.40;;;;;;5033902;28;20067;-62
2022/01/18 15:09:21;;;;;;;22.75;21.65;;;-0.50;72.90;;;;;;5031619;28;20029;-63
2022/01/18 15:11:47;;;;;;;19.95;19.15;;;-0.50;73.00;;;;;;5032132;28;20032;-64
2022/01/18 15:14:13;;;;;;;21.90;20.65;;;-0.50;73.10;;;;;;5033078;28;20357;-63
2022/01/18 15:16:38;;;;;;;21.08;19.90;;;-0.40;73.20;;;;;;5033335;28;20387;-63
2022/01/18 15:19:04;;;;;;;19.65;18.13;;;-0.40;73.00;;;;;;5033407;28;20034;-63
2022/01/18 15:21:30;;;;;;;29.30;27.15;;;-0.50;72.80;;;;;;5033618;28;20109;-61
2022/01/18 15:23:56;;;;;;;20.27;18.88;;;-0.60;72.30;;;;;;5033688;28;20032;-63
2022/01/18 15:26:21;;;;;;;20.77;19.40;;;-0.60;72.00;;;;;;5031912;28;20034;-64
2022/01/18 15:28:47;;;;;;;29.25;26.52;;;-0.60;71.80;;;;;;5033595;28;20080;-62
2022/01/18 15:31:14;;;;;;;24.33;22.30;;;-0.60;71.90;;;;;;5032253;28;20552;-63
2022/01/18 15:33:39;;;;;;;20.98;19.50;;;-0.60;71.90;;;;;;5030197;28;20032;-63
2022/01/18 15:36:05;;;;;;;28.45;26.25;;;-0.60;72.00;;;;;;5031087;28;20049;-63
2022/01/18 15:38:31;;;;;;;25.77;24.10;;;-0.60;71.90;;;;;;5031442;28;20084;-63
2022/01/18 15:40:57;;;;;;;21.10;20.05;;;-0.60;71.10;;;;;;5030159;28;20108;-63
2022/01/18 15:43:24;;;;;;;20.33;19.02;;;-0.60;71.40;;;;;;5031603;28;20071;-63
2022/01/18 15:45:50;;;;;;;51.22;35.35;;;-0.60;71.60;;;;;;5029578;28;20047;-64
2022/01/18 15:48:16;;;;;;;47.22;34.70;;;-0.60;71.50;;;;;;5029931;28;20387;-64
2022/01/18 15:50:42;;;;;;;34.78;31.67;;;-0.60;71.80;;;;;;5030291;28;20479;-63
2022/01/18 15:53:08;;;;;;;20.98;19.60;;;-0.70;71.40;;;;;;5030276;28;20029;-63
2022/01/18 15:55:34;;;;;;;26.63;25.02;;;-0.70;71.60;;;;;;5030248;28;20208;-63
2022/01/18 15:58:02;;;;;;;31.20;28.17;;;-0.70;71.60;;;;;;5031396;28;20068;-63
2022/01/18 16:00:28;;;;;;;33.38;27.35;;;-0.70;71.60;;;;;;5031338;28;20022;-63
2022/01/18 16:02:54;;;;;;;20.27;19.15;;;-0.80;71.80;;;;;;5031174;28;20472;-63
2022/01/18 16:05:20;;;;;;;37.55;30.80;;;-0.80;71.90;;;;;;5031118;28;20033;-63
2022/01/18 16:07:46;;;;;;;23.48;21.67;;;-0.80;72.20;;;;;;5029762;28;20026;-63
2022/01/18 16:10:12;;;;;;;22.83;20.90;;;-0.80;72.30;;;;;;5028070;28;20024;-63
2022/01/18 16:12:37;;;;;;;29.20;26.90;;;-0.80;72.30;;;;;;5033762;28;20018;-63
2022/01/18 16:15:04;;;;;;;21.52;19.98;;;-0.80;72.20;;;;;;5034723;28;20025;-63
2022/01/18 16:17:29;;;;;;;37.47;30.83;;;-0.80;72.30;;;;;;5035935;28;20430;-62
2022/01/18 16:19:55;;;;;;;20.83;19.70;;;-0.80;72.30;;;;;;5036139;28;20026;-62
2022/01/18 16:22:21;;;;;;;29.75;26.55;;;-0.80;72.50;;;;;;5034917;28;20034;-62
2022/01/18 16:24:47;;;;;;;27.48;25.50;;;-0.80;72.30;;;;;;5036000;28;20064;-62
2022/01/18 16:27:13;;;;;;;26.92;25.13;;;-0.80;72.40;;;;;;5036060;28;20044;-63
2022/01/18 16:29:39;;;;;;;49.45;34.75;;;-0.90;72.40;;;;;;5034616;28;20055;-63
2022/01/18 16:32:06;;;;;;;21.77;20.42;;;-0.80;72.80;;;;;;5034174;28;20109;-62
2022/01/18 16:34:32;;;;;;;25.77;23.67;;;-0.80;73.00;;;;;;5034631;28;20057;-63
2022/01/18 16:36:57;;;;;;;31.63;28.30;;;-0.80;73.20;;;;;;5035121;28;20060;-64
2022/01/18 16:39:23;;;;;;;71.95;52.03;;;-0.80;73.40;;;;;;5034145;28;20033;-63
2022/01/18 16:41:50;;;;;;;102.50;60.05;;;-0.80;73.60;;;;;;5034733;28;20029;-62
2022/01/18 16:44:16;;;;;;;67.28;42.95;;;-0.80;73.60;;;;;;5034480;28;20475;-63
2022/01/18 16:46:43;;;;;;;55.42;43.67;;;-0.90;73.80;;;;;;5035082;28;20030;-61
2022/01/18 16:49:09;;;;;;;83.95;55.90;;;-1.00;74.20;;;;;;5034946;28;20036;-60
2022/01/18 16:51:36;;;;;;;64.78;45.17;;;-1.00;74.60;;;;;;5034568;28;20041;-62
2022/01/18 16:54:02;;;;;;;23.10;21.23;;;-1.10;74.70;;;;;;5047364;28;20021;-61
2022/01/18 16:56:28;;;;;;;121.93;76.10;;;-1.10;75.00;;;;;;5033040;28;20021;-62
2022/01/18 16:58:54;;;;;;;75.22;58.35;;;-1.10;75.10;;;;;;5033745;28;20112;-62
2022/01/18 17:01:22;;;;;;;70.93;53.58;;;-1.10;75.40;;;;;;5034623;28;20033;-63
2022/01/18 17:03:48;;;;;;;31.15;28.77;;;-1.10;75.90;;;;;;5034576;28;20108;-64
2022/01/18 17:06:15;;;;;;;33.17;30.88;;;-1.10;76.20;;;;;;5035457;28;20037;-61
2022/01/18 17:08:42;;;;;;;34.40;31.48;;;-1.10;76.50;;;;;;5035352;28;20029;-61
2022/01/18 17:11:09;;;;;;;37.78;34.05;;;-1.20;76.40;;;;;;5034334;28;20100;-61
2022/01/18 17:13:36;;;;;;;49.38;39.42;;;-1.20;76.60;;;;;;5033645;28;20025;-61
2022/01/18 17:16:05;;;;;;;87.70;59.28;;;-1.10;76.90;;;;;;5034522;28;20434;-61
2022/01/18 17:18:31;;;;;;;23.17;21.65;;;-1.10;76.90;;;;;;5030590;28;20049;-61
2022/01/18 17:20:57;;;;;;;42.25;37.47;;;-1.20;77.00;;;;;;5034036;28;20056;-62
2022/01/18 17:23:23;;;;;;;25.50;23.55;;;-1.20;77.40;;;;;;5034032;28;20037;-62
2022/01/18 17:25:48;;;;;;;38.50;30.02;;;-1.20;77.50;;;;;;5033725;28;20076;-62
2022/01/18 17:28:16;;;;;;;34.78;31.42;;;-1.20;77.70;;;;;;5034110;28;20100;-62
2022/01/18 17:30:43;;;;;;;27.42;25.33;;;-1.20;77.90;;;;;;5033702;28;20013;-62
2022/01/18 17:33:09;;;;;;;34.72;31.92;;;-1.30;78.10;;;;;;5033788;28;20017;-61
2022/01/18 17:35:35;;;;;;;27.85;25.38;;;-1.30;78.10;;;;;;5032251;28;20122;-61
2022/01/18 17:38:01;;;;;;;41.42;37.85;;;-1.20;78.20;;;;;;5033694;28;20460;-60
2022/01/18 17:40:29;;;;;;;27.42;25.85;;;-1.20;78.10;;;;;;5032229;28;20041;-72
2022/01/18 17:42:54;;;;;;;23.75;22.40;;;-1.20;77.50;;;;;;5032260;28;20033;-62
2022/01/18 17:45:20;;;;;;;38.70;34.75;;;-1.10;77.50;;;;;;5034158;28;20081;-62
2022/01/18 17:47:46;;;;;;;28.83;26.20;;;-1.10;77.00;;;;;;5034467;28;20044;-62
2022/01/18 17:50:12;;;;;;;22.95;21.85;;;-1.10;76.80;;;;;;5033672;28;20033;-61
2022/01/18 17:52:38;;;;;;;24.45;22.67;;;-1.10;77.30;;;;;;5032054;28;20026;-62
2022/01/18 17:55:04;;;;;;;32.13;28.35;;;-1.00;77.50;;;;;;5031451;28;20056;-62
2022/01/18 17:57:30;;;;;;;23.83;22.23;;;-1.00;76.30;;;;;;5032136;28;20040;-62
2022/01/18 17:59:56;;;;;;;26.13;24.33;;;-1.10;76.00;;;;;;5032184;28;20021;-62
2022/01/18 18:02:21;;;;;;;22.98;21.50;;;-1.10;76.20;;;;;;5032723;28;20112;-63
2022/01/18 18:04:47;;;;;;;24.27;22.75;;;-1.10;75.80;;;;;;5032756;28;20049;-62
2022/01/18 18:07:15;;;;;;;26.13;24.20;;;-1.10;75.60;;;;;;5034007;28;20387;-63
2022/01/18 18:09:41;;;;;;;24.75;23.45;;;-1.10;75.30;;;;;;5032946;28;20455;-63
2022/01/18 18:12:09;;;;;;;24.85;22.80;;;-1.10;75.30;;;;;;5034010;28;20072;-63
2022/01/18 18:14:35;;;;;;;26.25;24.58;;;-1.10;75.30;;;;;;5032669;28;20438;-63
2022/01/18 18:17:01;;;;;;;22.50;21.27;;;-1.20;75.30;;;;;;5033949;28;20518;-62
2022/01/18 18:19:27;;;;;;;21.10;19.90;;;-1.10;75.60;;;;;;5034066;28;20025;-61
2022/01/18 18:21:53;;;;;;;27.60;24.70;;;-1.10;75.70;;;;;;5032379;28;20475;-61
2022/01/18 18:24:18;;;;;;;19.85;18.75;;;-1.00;76.00;;;;;;5034061;28;20029;-61
2022/01/18 18:26:44;;;;;;;21.10;20.20;;;-1.10;75.70;;;;;;5034398;28;20045;-62
2022/01/18 18:29:10;;;;;;;21.58;19.95;;;-1.20;75.80;;;;;;5032635;28;20026;-62
2022/01/18 18:31:36;;;;;;;22.85;21.52;;;-1.10;76.10;;;;;;5032948;28;20106;-61
2022/01/18 18:34:02;;;;;;;27.70;25.27;;;-1.10;76.30;;;;;;5033444;28;20155;-63
2022/01/18 18:36:28;;;;;;;25.02;23.50;;;-1.20;76.20;;;;;;5032496;28;20049;-63
2022/01/18 18:38:58;;;;;;;19.88;18.92;;;-1.20;76.40;;;;;;5030806;28;20039;-62
2022/01/18 18:42:02;;;;;;;26.33;24.60;;;-1.10;76.40;;;;;;5030830;28;20487;-63
2022/01/18 18:44:10;;;;;;;20.02;18.85;;;-1.00;76.60;;;;;;5033962;28;20121;-64
2022/01/18 18:46:38;;;;;;;21.00;20.02;;;-1.00;76.00;;;;;;5038975;28;20069;-64
2022/01/18 18:49:04;;;;;;;24.80;23.40;;;-1.00;76.00;;;;;;5039872;28;20468;-64
2022/01/18 18:51:30;;;;;;;20.60;19.60;;;-1.00;75.80;;;;;;5040553;28;20097;-63
2022/01/18 18:53:56;;;;;;;25.92;24.13;;;-0.90;76.20;;;;;;5034390;28;20052;-64
2022/01/18 18:56:22;;;;;;;17.83;17.13;;;-0.90;76.00;;;;;;5046674;28;20010;-63
2022/01/18 19:01:41;;;;;;;19.85;18.55;;;-0.80;75.80;;;;;;5034707;28;20390;-63
2022/01/18 19:04:07;;;;;;;28.08;25.55;;;-0.80;75.90;;;;;;5033913;28;20017;-63
2022/01/18 19:06:32;;;;;;;19.98;18.77;;;-0.80;76.10;;;;;;5032634;28;20349;-63
2022/01/18 19:08:58;;;;;;;25.98;24.15;;;-0.70;76.00;;;;;;5032218;28;20057;-63
2022/01/18 19:11:24;;;;;;;23.67;22.17;;;-0.70;76.00;;;;;;5032873;28;20116;-64
2022/01/18 19:13:51;;;;;;;20.50;19.40;;;-0.70;75.90;;;;;;5033841;28;20026;-64
2022/01/18 19:16:17;;;;;;;19.33;18.20;;;-0.80;75.90;;;;;;5034142;28;20108;-63
2022/01/18 19:18:43;;;;;;;23.17;21.92;;;-0.80;76.10;;;;;;5033302;28;20024;-63
2022/01/18 19:21:09;;;;;;;21.60;20.15;;;-0.70;76.40;;;;;;5032330;28;20017;-65
2022/01/18 19:23:37;;;;;;;19.23;18.08;;;-0.80;76.30;;;;;;5032021;28;20040;-63
2022/01/18 19:26:07;;;;;;;22.13;21.05;;;-0.80;76.50;;;;;;5032221;28;20041;-64
2022/01/18 19:28:33;;;;;;;20.27;19.38;;;-0.70;76.70;;;;;;5033652;28;20026;-62
2022/01/18 19:30:59;;;;;;;18.73;17.70;;;-0.70;76.80;;;;;;5033198;28;20463;-62
2022/01/18 19:33:26;;;;;;;23.55;21.95;;;-0.80;76.70;;;;;;5032523;28;20025;-61
2022/01/18 19:35:52;;;;;;;46.90;40.45;;;-0.80;76.80;;;;;;5033336;28;20077;-61
2022/01/18 19:38:22;;;;;;;25.65;24.15;;;-0.80;76.90;;;;;;5033745;28;20021;-63
2022/01/18 19:40:48;;;;;;;19.30;18.25;;;-0.90;76.90;;;;;;5032027;28;20017;-62
2022/01/18 19:43:13;;;;;;;51.50;40.17;;;-0.90;77.10;;;;;;5031969;28;20146;-62